KETN/ETN METAR and TAF weather

Enter ICAO airport designator
Station Type Date Time Source
KETN METAR 2020/07/11 16:50 UTC NOAA

KETN 111650Z AUTO 22006KT 10SM CLR 33/22 A3006 RMK AO2 T03340223


Station Type Date Time Source
KETN Decoded METAR 2020/07/11 16:50 UTC NOAA

Station name not available
Jul 11, 2020 - 12:50 PM EDT / 2020.07.11 1650 UTC
Wind: from the SW (220 degrees) at 7 MPH (6 KT):0
Visibility: 10 mile(s):0
Sky conditions: clear
Temperature: 92.1 F (33.4 C)
Heat index: 99.9 F (37.7 C):1
Dew Point: 72.1 F (22.3 C)
Relative Humidity: 52%
Pressure (altimeter): 30.06 in. Hg (1017 hPa)
ob: KETN 111650Z AUTO 22006KT 10SM CLR 33/22 A3006 RMK AO2 T03340223
cycle: 17

Station Type Date Time Source
KETN TAF UTC NOAA

Error!

Example: see airport list